Terminal Aerodrome Forecast
Issued by NWS

Home | Current Version | Previous Version | Text Only | Print | Product List | Glossary On
Versions: 1 2 3 4 5 6 7 8 9 10 11 12 13 14 15 16 17
000
FTUS46 KSEW 172347
TAFOLM
TAF
KOLM 172347Z 1800/1824 21007KT P6SM VCSH SCT030 BKN045
     FM180800 20004KT 4SM BR SCT006 BKN010 BKN030
     FM181700 20004KT P6SM SCT018 SCT030 BKN200
     FM182000 20006KT P6SM BKN200=

USA.gov is the U.S. government's official web portal to all federal, state and local government web resources and services.